sensor_id;sensor_type;location;lat;lon;timestamp;P1;durP1;ratioP1;P2;durP2;ratioP2
1436;SDS011;712;51.026;13.792;2022-07-04T00:00:09;4.90;;;4.60;;
1436;SDS011;712;51.026;13.792;2022-07-04T00:02:34;5.03;;;4.73;;
1436;SDS011;712;51.026;13.792;2022-07-04T00:05:00;4.50;;;4.20;;
1436;SDS011;712;51.026;13.792;2022-07-04T00:07:25;4.20;;;3.90;;
1436;SDS011;712;51.026;13.792;2022-07-04T00:09:50;4.93;;;4.60;;
1436;SDS011;712;51.026;13.792;2022-07-04T00:12:15;4.70;;;4.40;;
1436;SDS011;712;51.026;13.792;2022-07-04T00:14:40;5.00;;;4.60;;
1436;SDS011;712;51.026;13.792;2022-07-04T00:17:06;5.35;;;4.85;;
1436;SDS011;712;51.026;13.792;2022-07-04T00:19:31;5.40;;;5.00;;
1436;SDS011;712;51.026;13.792;2022-07-04T00:21:56;5.00;;;4.53;;
1436;SDS011;712;51.026;13.792;2022-07-04T00:24:21;5.13;;;4.72;;
1436;SDS011;712;51.026;13.792;2022-07-04T00:26:47;5.10;;;4.70;;
1436;SDS011;712;51.026;13.792;2022-07-04T00:29:12;5.28;;;4.97;;
1436;SDS011;712;51.026;13.792;2022-07-04T00:31:37;5.20;;;4.90;;
1436;SDS011;712;51.026;13.792;2022-07-04T00:34:02;5.60;;;5.10;;
1436;SDS011;712;51.026;13.792;2022-07-04T00:36:27;5.10;;;4.80;;
1436;SDS011;712;51.026;13.792;2022-07-04T00:38:52;5.10;;;4.80;;
1436;SDS011;712;51.026;13.792;2022-07-04T00:41:18;5.45;;;5.05;;
1436;SDS011;712;51.026;13.792;2022-07-04T00:43:43;4.83;;;4.53;;
1436;SDS011;712;51.026;13.792;2022-07-04T00:46:08;5.10;;;4.70;;
1436;SDS011;712;51.026;13.792;2022-07-04T00:48:33;5.78;;;5.28;;
1436;SDS011;712;51.026;13.792;2022-07-04T00:50:58;4.63;;;4.33;;
1436;SDS011;712;51.026;13.792;2022-07-04T00:53:24;5.40;;;5.00;;
1436;SDS011;712;51.026;13.792;2022-07-04T00:55:52;5.32;;;4.93;;
1436;SDS011;712;51.026;13.792;2022-07-04T00:58:21;5.30;;;4.90;;
1436;SDS011;712;51.026;13.792;2022-07-04T01:00:46;5.20;;;4.80;;
1436;SDS011;712;51.026;13.792;2022-07-04T01:03:12;5.10;;;4.70;;
1436;SDS011;712;51.026;13.792;2022-07-04T01:05:37;5.20;;;4.90;;
1436;SDS011;712;51.026;13.792;2022-07-04T01:08:03;5.60;;;5.10;;
1436;SDS011;712;51.026;13.792;2022-07-04T01:10:28;5.30;;;5.00;;
1436;SDS011;712;51.026;13.792;2022-07-04T01:12:53;5.35;;;4.95;;
1436;SDS011;712;51.026;13.792;2022-07-04T01:15:20;5.00;;;4.60;;
1436;SDS011;712;51.026;13.792;2022-07-04T01:17:45;4.80;;;4.50;;
1436;SDS011;712;51.026;13.792;2022-07-04T01:20:11;4.32;;;4.13;;
1436;SDS011;712;51.026;13.792;2022-07-04T01:22:36;4.70;;;4.40;;
1436;SDS011;712;51.026;13.792;2022-07-04T01:25:01;4.60;;;4.30;;
1436;SDS011;712;51.026;13.792;2022-07-04T01:27:28;4.10;;;3.80;;
1436;SDS011;712;51.026;13.792;2022-07-04T01:29:53;3.90;;;3.70;;
1436;SDS011;712;51.026;13.792;2022-07-04T01:32:18;3.78;;;3.58;;
1436;SDS011;712;51.026;13.792;2022-07-04T01:34:43;3.60;;;3.30;;
1436;SDS011;712;51.026;13.792;2022-07-04T01:37:08;3.90;;;3.50;;
1436;SDS011;712;51.026;13.792;2022-07-04T01:39:33;3.60;;;3.40;;
1436;SDS011;712;51.026;13.792;2022-07-04T01:41:58;3.40;;;3.20;;
1436;SDS011;712;51.026;13.792;2022-07-04T01:44:24;3.70;;;3.50;;
1436;SDS011;712;51.026;13.792;2022-07-04T01:46:49;3.60;;;3.30;;
1436;SDS011;712;51.026;13.792;2022-07-04T01:49:14;3.20;;;3.00;;
1436;SDS011;712;51.026;13.792;2022-07-04T01:51:45;3.45;;;3.25;;
1436;SDS011;712;51.026;13.792;2022-07-04T01:54:11;3.90;;;3.43;;
1436;SDS011;712;51.026;13.792;2022-07-04T01:56:36;3.35;;;3.15;;
1436;SDS011;712;51.026;13.792;2022-07-04T01:59:01;3.30;;;3.10;;
1436;SDS011;712;51.026;13.792;2022-07-04T02:01:28;3.20;;;3.00;;
1436;SDS011;712;51.026;13.792;2022-07-04T02:03:57;3.78;;;3.55;;
1436;SDS011;712;51.026;13.792;2022-07-04T02:06:22;3.83;;;3.53;;
1436;SDS011;712;51.026;13.792;2022-07-04T02:08:47;4.32;;;4.03;;
1436;SDS011;712;51.026;13.792;2022-07-04T02:11:31;3.50;;;3.30;;
1436;SDS011;712;51.026;13.792;2022-07-04T02:14:16;3.63;;;3.33;;
1436;SDS011;712;51.026;13.792;2022-07-04T02:16:42;3.35;;;3.15;;
1436;SDS011;712;51.026;13.792;2022-07-04T02:19:07;3.45;;;3.25;;
1436;SDS011;712;51.026;13.792;2022-07-04T02:21:32;3.40;;;3.20;;
1436;SDS011;712;51.026;13.792;2022-07-04T02:23:57;3.33;;;3.03;;
1436;SDS011;712;51.026;13.792;2022-07-04T02:26:22;3.33;;;3.13;;
1436;SDS011;712;51.026;13.792;2022-07-04T02:28:47;3.30;;;3.10;;
1436;SDS011;712;51.026;13.792;2022-07-04T02:31:13;3.50;;;3.30;;
1436;SDS011;712;51.026;13.792;2022-07-04T02:33:38;3.75;;;3.55;;
1436;SDS011;712;51.026;13.792;2022-07-04T02:36:03;3.20;;;3.00;;
1436;SDS011;712;51.026;13.792;2022-07-04T02:38:28;4.00;;;3.70;;
1436;SDS011;712;51.026;13.792;2022-07-04T02:40:53;3.40;;;3.20;;
1436;SDS011;712;51.026;13.792;2022-07-04T02:43:18;3.47;;;3.17;;
1436;SDS011;712;51.026;13.792;2022-07-04T02:45:44;3.60;;;3.30;;
1436;SDS011;712;51.026;13.792;2022-07-04T02:48:09;4.15;;;3.90;;
1436;SDS011;712;51.026;13.792;2022-07-04T02:50:34;3.35;;;3.15;;
1436;SDS011;712;51.026;13.792;2022-07-04T02:53:00;3.60;;;3.40;;
1436;SDS011;712;51.026;13.792;2022-07-04T02:55:25;3.38;;;3.17;;
1436;SDS011;712;51.026;13.792;2022-07-04T02:57:50;4.50;;;3.50;;
1436;SDS011;712;51.026;13.792;2022-07-04T03:00:15;3.70;;;3.40;;
1436;SDS011;712;51.026;13.792;2022-07-04T03:02:40;3.50;;;3.30;;
1436;SDS011;712;51.026;13.792;2022-07-04T03:05:06;3.50;;;3.20;;
1436;SDS011;712;51.026;13.792;2022-07-04T03:07:31;3.50;;;3.10;;
1436;SDS011;712;51.026;13.792;2022-07-04T03:09:56;3.20;;;3.00;;
1436;SDS011;712;51.026;13.792;2022-07-04T03:12:21;2.80;;;2.60;;
1436;SDS011;712;51.026;13.792;2022-07-04T03:14:46;3.20;;;3.00;;
1436;SDS011;712;51.026;13.792;2022-07-04T03:17:11;3.72;;;3.42;;
1436;SDS011;712;51.026;13.792;2022-07-04T03:19:37;3.00;;;2.80;;
1436;SDS011;712;51.026;13.792;2022-07-04T03:22:02;3.25;;;3.05;;
1436;SDS011;712;51.026;13.792;2022-07-04T03:24:27;3.70;;;3.43;;
1436;SDS011;712;51.026;13.792;2022-07-04T03:26:52;3.20;;;3.00;;
1436;SDS011;712;51.026;13.792;2022-07-04T03:29:17;3.38;;;3.10;;
1436;SDS011;712;51.026;13.792;2022-07-04T03:31:42;3.60;;;3.30;;
1436;SDS011;712;51.026;13.792;2022-07-04T03:34:07;3.27;;;2.97;;
1436;SDS011;712;51.026;13.792;2022-07-04T03:36:33;3.08;;;2.88;;
1436;SDS011;712;51.026;13.792;2022-07-04T03:38:58;2.78;;;2.67;;
1436;SDS011;712;51.026;13.792;2022-07-04T03:41:23;2.70;;;2.60;;
1436;SDS011;712;51.026;13.792;2022-07-04T03:43:48;2.70;;;2.50;;
1436;SDS011;712;51.026;13.792;2022-07-04T03:46:13;2.80;;;2.60;;
1436;SDS011;712;51.026;13.792;2022-07-04T03:48:38;2.60;;;2.50;;
1436;SDS011;712;51.026;13.792;2022-07-04T03:51:03;2.90;;;2.70;;
1436;SDS011;712;51.026;13.792;2022-07-04T03:53:29;3.70;;;2.70;;
1436;SDS011;712;51.026;13.792;2022-07-04T03:55:54;3.10;;;2.90;;
1436;SDS011;712;51.026;13.792;2022-07-04T03:58:19;3.30;;;3.10;;
1436;SDS011;712;51.026;13.792;2022-07-04T04:00:44;2.90;;;2.70;;
1436;SDS011;712;51.026;13.792;2022-07-04T04:03:09;3.05;;;2.85;;
1436;SDS011;712;51.026;13.792;2022-07-04T04:05:53;3.00;;;2.80;;
1436;SDS011;712;51.026;13.792;2022-07-04T04:08:19;3.20;;;2.90;;
1436;SDS011;712;51.026;13.792;2022-07-04T04:10:44;2.97;;;2.77;;
1436;SDS011;712;51.026;13.792;2022-07-04T04:13:09;2.70;;;2.50;;
1436;SDS011;712;51.026;13.792;2022-07-04T04:15:34;3.20;;;2.90;;
1436;SDS011;712;51.026;13.792;2022-07-04T04:17:59;2.70;;;2.50;;
1436;SDS011;712;51.026;13.792;2022-07-04T04:20:24;2.83;;;2.60;;
1436;SDS011;712;51.026;13.792;2022-07-04T04:22:50;3.00;;;2.70;;
1436;SDS011;712;51.026;13.792;2022-07-04T04:25:15;2.92;;;2.72;;
1436;SDS011;712;51.026;13.792;2022-07-04T04:27:40;3.40;;;3.10;;
1436;SDS011;712;51.026;13.792;2022-07-04T04:30:05;3.40;;;3.10;;
1436;SDS011;712;51.026;13.792;2022-07-04T04:32:31;3.30;;;3.10;;
1436;SDS011;712;51.026;13.792;2022-07-04T04:34:57;3.17;;;2.97;;
1436;SDS011;712;51.026;13.792;2022-07-04T04:37:22;4.10;;;3.00;;
1436;SDS011;712;51.026;13.792;2022-07-04T04:39:47;3.30;;;3.00;;
1436;SDS011;712;51.026;13.792;2022-07-04T04:42:12;3.90;;;3.60;;
1436;SDS011;712;51.026;13.792;2022-07-04T04:44:38;3.47;;;3.17;;
1436;SDS011;712;51.026;13.792;2022-07-04T04:47:03;3.80;;;3.50;;
1436;SDS011;712;51.026;13.792;2022-07-04T04:49:28;3.60;;;3.30;;
1436;SDS011;712;51.026;13.792;2022-07-04T04:51:53;3.50;;;3.20;;
1436;SDS011;712;51.026;13.792;2022-07-04T04:54:18;3.70;;;3.40;;
1436;SDS011;712;51.026;13.792;2022-07-04T04:56:43;3.60;;;3.30;;
1436;SDS011;712;51.026;13.792;2022-07-04T04:59:08;4.10;;;3.70;;
1436;SDS011;712;51.026;13.792;2022-07-04T05:01:34;3.20;;;3.00;;
1436;SDS011;712;51.026;13.792;2022-07-04T05:04:00;3.40;;;3.20;;
1436;SDS011;712;51.026;13.792;2022-07-04T05:06:25;3.72;;;3.42;;
1436;SDS011;712;51.026;13.792;2022-07-04T05:08:50;3.30;;;3.10;;
1436;SDS011;712;51.026;13.792;2022-07-04T05:11:15;3.60;;;3.30;;
1436;SDS011;712;51.026;13.792;2022-07-04T05:13:40;3.90;;;3.60;;
1436;SDS011;712;51.026;13.792;2022-07-04T05:16:06;4.10;;;3.80;;
1436;SDS011;712;51.026;13.792;2022-07-04T05:18:31;3.30;;;3.10;;
1436;SDS011;712;51.026;13.792;2022-07-04T05:20:57;4.43;;;4.13;;
1436;SDS011;712;51.026;13.792;2022-07-04T05:23:22;4.30;;;4.00;;
1436;SDS011;712;51.026;13.792;2022-07-04T05:25:48;3.67;;;3.38;;
1436;SDS011;712;51.026;13.792;2022-07-04T05:28:34;4.13;;;3.60;;
1436;SDS011;712;51.026;13.792;2022-07-04T05:31:20;4.00;;;3.70;;
1436;SDS011;712;51.026;13.792;2022-07-04T05:33:45;3.80;;;3.50;;
1436;SDS011;712;51.026;13.792;2022-07-04T05:36:10;4.00;;;3.70;;
1436;SDS011;712;51.026;13.792;2022-07-04T05:38:35;3.53;;;3.30;;
1436;SDS011;712;51.026;13.792;2022-07-04T05:41:01;3.75;;;3.40;;
1436;SDS011;712;51.026;13.792;2022-07-04T05:43:26;4.03;;;3.70;;
1436;SDS011;712;51.026;13.792;2022-07-04T05:45:51;3.95;;;3.65;;
1436;SDS011;712;51.026;13.792;2022-07-04T05:48:16;3.85;;;3.55;;
1436;SDS011;712;51.026;13.792;2022-07-04T05:50:41;3.87;;;3.67;;
1436;SDS011;712;51.026;13.792;2022-07-04T05:53:06;4.70;;;3.50;;
1436;SDS011;712;51.026;13.792;2022-07-04T05:55:32;3.75;;;3.45;;
1436;SDS011;712;51.026;13.792;2022-07-04T05:57:58;3.20;;;3.00;;
1436;SDS011;712;51.026;13.792;2022-07-04T06:00:23;3.00;;;2.80;;
1436;SDS011;712;51.026;13.792;2022-07-04T06:02:48;3.37;;;3.10;;
1436;SDS011;712;51.026;13.792;2022-07-04T06:05:13;3.30;;;3.00;;
1436;SDS011;712;51.026;13.792;2022-07-04T06:07:38;3.10;;;2.90;;
1436;SDS011;712;51.026;13.792;2022-07-04T06:10:04;3.37;;;3.17;;
1436;SDS011;712;51.026;13.792;2022-07-04T06:12:30;3.00;;;2.80;;
1436;SDS011;712;51.026;13.792;2022-07-04T06:14:55;4.00;;;3.70;;
1436;SDS011;712;51.026;13.792;2022-07-04T06:17:20;3.90;;;3.60;;
1436;SDS011;712;51.026;13.792;2022-07-04T06:19:46;3.90;;;3.60;;
1436;SDS011;712;51.026;13.792;2022-07-04T06:22:11;4.47;;;4.17;;
1436;SDS011;712;51.026;13.792;2022-07-04T06:24:36;4.10;;;3.50;;
1436;SDS011;712;51.026;13.792;2022-07-04T06:27:01;3.55;;;3.25;;
1436;SDS011;712;51.026;13.792;2022-07-04T06:29:28;3.70;;;3.50;;
1436;SDS011;712;51.026;13.792;2022-07-04T06:31:53;3.53;;;3.20;;
1436;SDS011;712;51.026;13.792;2022-07-04T06:34:18;3.58;;;3.30;;
1436;SDS011;712;51.026;13.792;2022-07-04T06:37:02;4.20;;;3.80;;
1436;SDS011;712;51.026;13.792;2022-07-04T06:39:27;3.20;;;3.00;;
1436;SDS011;712;51.026;13.792;2022-07-04T06:41:52;4.07;;;3.50;;
1436;SDS011;712;51.026;13.792;2022-07-04T06:44:18;3.00;;;2.80;;
1436;SDS011;712;51.026;13.792;2022-07-04T06:46:43;3.20;;;3.00;;
1436;SDS011;712;51.026;13.792;2022-07-04T06:49:09;3.80;;;3.60;;
1436;SDS011;712;51.026;13.792;2022-07-04T06:51:34;3.20;;;3.00;;
1436;SDS011;712;51.026;13.792;2022-07-04T06:53:59;3.40;;;3.10;;
1436;SDS011;712;51.026;13.792;2022-07-04T06:56:24;3.03;;;2.83;;
1436;SDS011;712;51.026;13.792;2022-07-04T06:58:49;3.70;;;3.40;;
1436;SDS011;712;51.026;13.792;2022-07-04T07:01:15;3.80;;;3.60;;
1436;SDS011;712;51.026;13.792;2022-07-04T07:03:41;3.60;;;3.30;;
1436;SDS011;712;51.026;13.792;2022-07-04T07:06:06;2.90;;;2.80;;
1436;SDS011;712;51.026;13.792;2022-07-04T07:08:31;3.80;;;3.40;;
1436;SDS011;712;51.026;13.792;2022-07-04T07:10:57;3.10;;;2.90;;
1436;SDS011;712;51.026;13.792;2022-07-04T07:13:22;3.58;;;3.28;;
1436;SDS011;712;51.026;13.792;2022-07-04T07:15:47;3.30;;;3.10;;
1436;SDS011;712;51.026;13.792;2022-07-04T07:18:12;3.38;;;3.08;;
1436;SDS011;712;51.026;13.792;2022-07-04T07:20:37;3.40;;;3.03;;
1436;SDS011;712;51.026;13.792;2022-07-04T07:23:03;3.67;;;3.38;;
1436;SDS011;712;51.026;13.792;2022-07-04T07:25:29;3.38;;;3.10;;
1436;SDS011;712;51.026;13.792;2022-07-04T07:27:54;3.40;;;3.10;;
1436;SDS011;712;51.026;13.792;2022-07-04T07:30:19;3.55;;;3.35;;
1436;SDS011;712;51.026;13.792;2022-07-04T07:32:44;3.00;;;2.80;;
1436;SDS011;712;51.026;13.792;2022-07-04T07:35:11;3.30;;;3.10;;
1436;SDS011;712;51.026;13.792;2022-07-04T07:37:36;3.40;;;3.20;;
1436;SDS011;712;51.026;13.792;2022-07-04T07:40:01;3.35;;;3.05;;
1436;SDS011;712;51.026;13.792;2022-07-04T07:42:27;3.60;;;3.30;;
1436;SDS011;712;51.026;13.792;2022-07-04T07:44:52;3.10;;;2.90;;
1436;SDS011;712;51.026;13.792;2022-07-04T07:47:17;3.30;;;3.00;;
1436;SDS011;712;51.026;13.792;2022-07-04T07:49:43;3.10;;;2.90;;
1436;SDS011;712;51.026;13.792;2022-07-04T07:52:09;3.30;;;3.10;;
1436;SDS011;712;51.026;13.792;2022-07-04T07:54:34;3.50;;;3.30;;
1436;SDS011;712;51.026;13.792;2022-07-04T07:56:59;3.67;;;3.38;;
1436;SDS011;712;51.026;13.792;2022-07-04T07:59:24;2.95;;;2.72;;
1436;SDS011;712;51.026;13.792;2022-07-04T08:01:49;3.53;;;3.30;;
1436;SDS011;712;51.026;13.792;2022-07-04T08:04:14;3.72;;;3.42;;
1436;SDS011;712;51.026;13.792;2022-07-04T08:06:58;4.03;;;3.50;;
1436;SDS011;712;51.026;13.792;2022-07-04T08:09:23;3.03;;;2.83;;
1436;SDS011;712;51.026;13.792;2022-07-04T08:11:48;3.40;;;3.20;;
1436;SDS011;712;51.026;13.792;2022-07-04T08:14:13;4.00;;;3.60;;
1436;SDS011;712;51.026;13.792;2022-07-04T08:16:39;3.90;;;3.60;;
1436;SDS011;712;51.026;13.792;2022-07-04T08:19:05;4.00;;;3.10;;
1436;SDS011;712;51.026;13.792;2022-07-04T08:21:30;3.30;;;3.10;;
1436;SDS011;712;51.026;13.792;2022-07-04T08:23:55;2.90;;;2.70;;
1436;SDS011;712;51.026;13.792;2022-07-04T08:26:20;2.90;;;2.70;;
1436;SDS011;712;51.026;13.792;2022-07-04T08:28:45;3.53;;;3.33;;
1436;SDS011;712;51.026;13.792;2022-07-04T08:31:11;3.50;;;3.20;;
1436;SDS011;712;51.026;13.792;2022-07-04T08:33:36;3.30;;;3.10;;
1436;SDS011;712;51.026;13.792;2022-07-04T08:36:01;3.17;;;2.97;;
1436;SDS011;712;51.026;13.792;2022-07-04T08:38:27;2.60;;;2.50;;
1436;SDS011;712;51.026;13.792;2022-07-04T08:40:54;2.90;;;2.60;;
1436;SDS011;712;51.026;13.792;2022-07-04T08:43:22;3.80;;;3.40;;
1436;SDS011;712;51.026;13.792;2022-07-04T08:45:47;3.20;;;3.00;;
1436;SDS011;712;51.026;13.792;2022-07-04T08:48:12;3.50;;;3.30;;
1436;SDS011;712;51.026;13.792;2022-07-04T08:50:40;3.33;;;3.13;;
1436;SDS011;712;51.026;13.792;2022-07-04T08:53:11;3.47;;;3.17;;
1436;SDS011;712;51.026;13.792;2022-07-04T08:55:38;3.15;;;2.95;;
1436;SDS011;712;51.026;13.792;2022-07-04T08:58:22;3.75;;;3.55;;
1436;SDS011;712;51.026;13.792;2022-07-04T09:00:54;3.50;;;3.30;;
1436;SDS011;712;51.026;13.792;2022-07-04T09:03:19;3.40;;;3.20;;
1436;SDS011;712;51.026;13.792;2022-07-04T09:05:45;3.30;;;3.00;;
1436;SDS011;712;51.026;13.792;2022-07-04T09:08:10;3.50;;;3.20;;
1436;SDS011;712;51.026;13.792;2022-07-04T09:10:36;3.10;;;2.90;;
1436;SDS011;712;51.026;13.792;2022-07-04T09:13:02;2.80;;;2.60;;
1436;SDS011;712;51.026;13.792;2022-07-04T09:15:28;2.75;;;2.55;;
1436;SDS011;712;51.026;13.792;2022-07-04T09:17:53;3.43;;;3.23;;
1436;SDS011;712;51.026;13.792;2022-07-04T09:20:20;3.30;;;2.70;;
1436;SDS011;712;51.026;13.792;2022-07-04T09:22:46;3.30;;;3.10;;
1436;SDS011;712;51.026;13.792;2022-07-04T09:25:12;3.10;;;2.90;;
1436;SDS011;712;51.026;13.792;2022-07-04T09:27:40;3.60;;;3.30;;
1436;SDS011;712;51.026;13.792;2022-07-04T09:30:07;3.47;;;3.27;;
1436;SDS011;712;51.026;13.792;2022-07-04T09:32:33;3.20;;;3.00;;
1436;SDS011;712;51.026;13.792;2022-07-04T09:34:59;3.20;;;3.00;;
1436;SDS011;712;51.026;13.792;2022-07-04T09:37:33;2.60;;;2.40;;
1436;SDS011;712;51.026;13.792;2022-07-04T09:39:58;3.20;;;2.90;;
1436;SDS011;712;51.026;13.792;2022-07-04T09:42:23;2.78;;;2.58;;
1436;SDS011;712;51.026;13.792;2022-07-04T09:44:48;2.90;;;2.70;;
1436;SDS011;712;51.026;13.792;2022-07-04T09:47:23;3.10;;;2.90;;
1436;SDS011;712;51.026;13.792;2022-07-04T09:55:29;4.03;;;3.10;;
1436;SDS011;712;51.026;13.792;2022-07-04T09:57:56;3.42;;;3.13;;
1436;SDS011;712;51.026;13.792;2022-07-04T10:00:22;2.78;;;2.55;;
1436;SDS011;712;51.026;13.792;2022-07-04T10:02:48;2.97;;;2.78;;
1436;SDS011;712;51.026;13.792;2022-07-04T10:05:18;3.25;;;3.05;;
1436;SDS011;712;51.026;13.792;2022-07-04T10:07:44;2.80;;;2.60;;
1436;SDS011;712;51.026;13.792;2022-07-04T10:12:50;2.38;;;2.28;;
1436;SDS011;712;51.026;13.792;2022-07-04T10:15:16;2.80;;;2.60;;
1436;SDS011;712;51.026;13.792;2022-07-04T10:17:41;2.60;;;2.40;;
1436;SDS011;712;51.026;13.792;2022-07-04T10:20:06;2.50;;;2.40;;
1436;SDS011;712;51.026;13.792;2022-07-04T10:22:32;2.85;;;2.63;;
1436;SDS011;712;51.026;13.792;2022-07-04T10:24:57;2.60;;;2.50;;
1436;SDS011;712;51.026;13.792;2022-07-04T10:27:22;2.33;;;2.20;;
1436;SDS011;712;51.026;13.792;2022-07-04T10:29:48;2.90;;;2.70;;
1436;SDS011;712;51.026;13.792;2022-07-04T10:32:13;2.50;;;2.40;;
1436;SDS011;712;51.026;13.792;2022-07-04T10:34:39;2.83;;;2.63;;
1436;SDS011;712;51.026;13.792;2022-07-04T10:37:05;3.00;;;2.80;;
1436;SDS011;712;51.026;13.792;2022-07-04T10:39:30;2.80;;;2.60;;
1436;SDS011;712;51.026;13.792;2022-07-04T10:41:58;3.00;;;2.80;;
1436;SDS011;712;51.026;13.792;2022-07-04T10:44:25;2.80;;;2.60;;
1436;SDS011;712;51.026;13.792;2022-07-04T10:46:51;2.50;;;2.30;;
1436;SDS011;712;51.026;13.792;2022-07-04T10:49:18;3.00;;;2.80;;
1436;SDS011;712;51.026;13.792;2022-07-04T10:54:16;3.30;;;3.10;;
1436;SDS011;712;51.026;13.792;2022-07-04T10:56:50;3.20;;;2.70;;
1436;SDS011;712;51.026;13.792;2022-07-04T11:02:41;2.85;;;2.72;;
1436;SDS011;712;51.026;13.792;2022-07-04T11:07:16;2.70;;;2.50;;
1436;SDS011;712;51.026;13.792;2022-07-04T11:09:43;2.70;;;2.60;;
1436;SDS011;712;51.026;13.792;2022-07-04T11:12:08;2.90;;;2.70;;
1436;SDS011;712;51.026;13.792;2022-07-04T11:14:40;3.10;;;2.80;;
1436;SDS011;712;51.026;13.792;2022-07-04T11:17:19;2.90;;;2.70;;
1436;SDS011;712;51.026;13.792;2022-07-04T11:19:44;2.83;;;2.65;;
1436;SDS011;712;51.026;13.792;2022-07-04T11:22:10;2.87;;;2.70;;
1436;SDS011;712;51.026;13.792;2022-07-04T11:24:36;3.10;;;2.90;;
1436;SDS011;712;51.026;13.792;2022-07-04T11:27:01;3.10;;;2.90;;
1436;SDS011;712;51.026;13.792;2022-07-04T11:29:27;2.85;;;2.45;;
1436;SDS011;712;51.026;13.792;2022-07-04T11:31:52;3.20;;;3.00;;
1436;SDS011;712;51.026;13.792;2022-07-04T11:34:18;2.60;;;2.50;;
1436;SDS011;712;51.026;13.792;2022-07-04T11:36:44;3.90;;;3.33;;
1436;SDS011;712;51.026;13.792;2022-07-04T11:39:10;2.80;;;2.60;;
1436;SDS011;712;51.026;13.792;2022-07-04T11:41:40;2.90;;;2.70;;
1436;SDS011;712;51.026;13.792;2022-07-04T11:44:30;3.40;;;2.60;;
1436;SDS011;712;51.026;13.792;2022-07-04T11:49:50;2.87;;;2.67;;
1436;SDS011;712;51.026;13.792;2022-07-04T11:52:17;3.42;;;2.92;;
1436;SDS011;712;51.026;13.792;2022-07-04T11:54:43;2.80;;;2.60;;
1436;SDS011;712;51.026;13.792;2022-07-04T11:57:18;2.50;;;2.40;;
1436;SDS011;712;51.026;13.792;2022-07-04T11:59:51;3.10;;;2.50;;
1436;SDS011;712;51.026;13.792;2022-07-04T12:02:17;2.67;;;2.47;;
1436;SDS011;712;51.026;13.792;2022-07-04T12:04:42;2.80;;;2.60;;
1436;SDS011;712;51.026;13.792;2022-07-04T12:07:18;2.90;;;2.70;;
1436;SDS011;712;51.026;13.792;2022-07-04T12:09:44;2.83;;;2.65;;
1436;SDS011;712;51.026;13.792;2022-07-04T12:12:11;3.30;;;3.00;;
1436;SDS011;712;51.026;13.792;2022-07-04T12:14:36;2.53;;;2.33;;
1436;SDS011;712;51.026;13.792;2022-07-04T12:19:35;3.15;;;2.90;;
1436;SDS011;712;51.026;13.792;2022-07-04T12:22:01;2.83;;;2.63;;
1436;SDS011;712;51.026;13.792;2022-07-04T12:24:26;3.37;;;3.07;;
1436;SDS011;712;51.026;13.792;2022-07-04T12:26:52;2.70;;;2.50;;
1436;SDS011;712;51.026;13.792;2022-07-04T12:29:21;2.78;;;2.58;;
1436;SDS011;712;51.026;13.792;2022-07-04T12:31:50;2.75;;;2.50;;
1436;SDS011;712;51.026;13.792;2022-07-04T12:34:16;4.07;;;2.53;;
1436;SDS011;712;51.026;13.792;2022-07-04T12:36:59;2.40;;;2.20;;
1436;SDS011;712;51.026;13.792;2022-07-04T12:39:30;2.50;;;2.30;;
1436;SDS011;712;51.026;13.792;2022-07-04T12:44:40;2.70;;;2.50;;
1436;SDS011;712;51.026;13.792;2022-07-04T12:47:05;2.50;;;2.30;;
1436;SDS011;712;51.026;13.792;2022-07-04T12:49:31;2.80;;;2.60;;
1436;SDS011;712;51.026;13.792;2022-07-04T12:52:04;2.90;;;2.70;;
1436;SDS011;712;51.026;13.792;2022-07-04T12:54:29;2.80;;;2.60;;
1436;SDS011;712;51.026;13.792;2022-07-04T12:57:02;2.40;;;2.30;;
1436;SDS011;712;51.026;13.792;2022-07-04T12:59:27;2.50;;;2.40;;
1436;SDS011;712;51.026;13.792;2022-07-04T13:01:52;3.00;;;2.77;;
1436;SDS011;712;51.026;13.792;2022-07-04T13:04:18;2.73;;;2.53;;
1436;SDS011;712;51.026;13.792;2022-07-04T13:06:43;2.95;;;2.65;;
1436;SDS011;712;51.026;13.792;2022-07-04T13:09:08;4.07;;;2.40;;
1436;SDS011;712;51.026;13.792;2022-07-04T13:11:34;2.60;;;2.40;;
1436;SDS011;712;51.026;13.792;2022-07-04T13:14:18;2.90;;;2.70;;
1436;SDS011;712;51.026;13.792;2022-07-04T13:16:43;2.60;;;2.40;;
1436;SDS011;712;51.026;13.792;2022-07-04T13:19:08;2.30;;;2.20;;
1436;SDS011;712;51.026;13.792;2022-07-04T13:21:33;2.60;;;2.40;;
1436;SDS011;712;51.026;13.792;2022-07-04T13:23:58;2.60;;;2.40;;
1436;SDS011;712;51.026;13.792;2022-07-04T13:26:23;3.70;;;2.53;;
1436;SDS011;712;51.026;13.792;2022-07-04T13:28:50;2.80;;;2.60;;
1436;SDS011;712;51.026;13.792;2022-07-04T13:31:15;3.70;;;2.37;;
1436;SDS011;712;51.026;13.792;2022-07-04T13:33:40;2.90;;;2.40;;
1436;SDS011;712;51.026;13.792;2022-07-04T13:36:06;2.60;;;2.40;;
1436;SDS011;712;51.026;13.792;2022-07-04T13:38:31;3.22;;;2.30;;
1436;SDS011;712;51.026;13.792;2022-07-04T13:40:57;2.30;;;2.20;;
1436;SDS011;712;51.026;13.792;2022-07-04T13:43:22;3.90;;;2.40;;
1436;SDS011;712;51.026;13.792;2022-07-04T13:45:48;3.05;;;2.60;;
1436;SDS011;712;51.026;13.792;2022-07-04T13:48:14;3.03;;;2.60;;
1436;SDS011;712;51.026;13.792;2022-07-04T13:50:39;2.60;;;2.40;;
1436;SDS011;712;51.026;13.792;2022-07-04T13:53:04;2.50;;;2.40;;
1436;SDS011;712;51.026;13.792;2022-07-04T13:55:30;2.53;;;2.33;;
1436;SDS011;712;51.026;13.792;2022-07-04T13:57:55;3.55;;;2.40;;
1436;SDS011;712;51.026;13.792;2022-07-04T14:00:20;3.10;;;2.30;;
1436;SDS011;712;51.026;13.792;2022-07-04T14:02:45;2.30;;;2.10;;
1436;SDS011;712;51.026;13.792;2022-07-04T14:05:10;2.30;;;2.10;;
1436;SDS011;712;51.026;13.792;2022-07-04T14:07:36;2.60;;;2.40;;
1436;SDS011;712;51.026;13.792;2022-07-04T14:10:01;3.50;;;2.50;;
1436;SDS011;712;51.026;13.792;2022-07-04T14:12:26;2.37;;;2.17;;
1436;SDS011;712;51.026;13.792;2022-07-04T14:14:51;3.03;;;2.42;;
1436;SDS011;712;51.026;13.792;2022-07-04T14:17:17;2.60;;;2.40;;
1436;SDS011;712;51.026;13.792;2022-07-04T14:19:42;2.10;;;2.00;;
1436;SDS011;712;51.026;13.792;2022-07-04T14:22:07;2.23;;;2.13;;
1436;SDS011;712;51.026;13.792;2022-07-04T14:24:32;2.20;;;1.90;;
1436;SDS011;712;51.026;13.792;2022-07-04T14:26:58;2.40;;;2.20;;
1436;SDS011;712;51.026;13.792;2022-07-04T14:29:23;2.70;;;2.50;;
1436;SDS011;712;51.026;13.792;2022-07-04T14:31:48;2.50;;;2.40;;
1436;SDS011;712;51.026;13.792;2022-07-04T14:34:13;2.30;;;2.10;;
1436;SDS011;712;51.026;13.792;2022-07-04T14:36:39;2.50;;;2.30;;
1436;SDS011;712;51.026;13.792;2022-07-04T14:39:04;2.38;;;2.10;;
1436;SDS011;712;51.026;13.792;2022-07-04T14:41:29;2.30;;;2.10;;
1436;SDS011;712;51.026;13.792;2022-07-04T14:43:54;2.10;;;2.00;;
1436;SDS011;712;51.026;13.792;2022-07-04T14:46:20;2.13;;;2.03;;
1436;SDS011;712;51.026;13.792;2022-07-04T14:48:45;2.10;;;2.00;;
1436;SDS011;712;51.026;13.792;2022-07-04T14:51:10;2.30;;;2.10;;
1436;SDS011;712;51.026;13.792;2022-07-04T14:53:35;2.07;;;1.97;;
1436;SDS011;712;51.026;13.792;2022-07-04T14:56:00;2.10;;;2.00;;
1436;SDS011;712;51.026;13.792;2022-07-04T14:58:25;2.20;;;1.93;;
1436;SDS011;712;51.026;13.792;2022-07-04T15:00:51;2.03;;;1.93;;
1436;SDS011;712;51.026;13.792;2022-07-04T15:03:16;2.10;;;2.00;;
1436;SDS011;712;51.026;13.792;2022-07-04T15:05:41;2.20;;;2.00;;
1436;SDS011;712;51.026;13.792;2022-07-04T15:08:06;2.10;;;1.90;;
1436;SDS011;712;51.026;13.792;2022-07-04T15:10:31;2.30;;;2.00;;
1436;SDS011;712;51.026;13.792;2022-07-04T15:12:57;2.40;;;2.20;;
1436;SDS011;712;51.026;13.792;2022-07-04T15:15:22;2.40;;;2.20;;
1436;SDS011;712;51.026;13.792;2022-07-04T15:17:47;2.30;;;1.80;;
1436;SDS011;712;51.026;13.792;2022-07-04T15:20:13;2.53;;;2.10;;
1436;SDS011;712;51.026;13.792;2022-07-04T15:22:56;2.08;;;1.90;;
1436;SDS011;712;51.026;13.792;2022-07-04T15:25:40;2.10;;;1.90;;
1436;SDS011;712;51.026;13.792;2022-07-04T15:28:06;2.20;;;2.00;;
1436;SDS011;712;51.026;13.792;2022-07-04T15:30:31;2.27;;;1.90;;
1436;SDS011;712;51.026;13.792;2022-07-04T15:32:56;2.40;;;2.20;;